createdAt,value
2023-02-06T00:01:42.234Z,25.90
2023-02-06T00:04:10.497Z,25.80
2023-02-06T00:06:38.810Z,25.60
2023-02-06T00:09:07.712Z,27.10
2023-02-06T00:11:35.726Z,28.80
2023-02-06T00:14:04.450Z,28.30
2023-02-06T00:16:34.660Z,30.00
2023-02-06T00:19:03.350Z,26.80
2023-02-06T00:21:31.733Z,26.50
2023-02-06T00:24:02.123Z,26.90
2023-02-06T00:26:31.732Z,26.10
2023-02-06T00:28:59.914Z,23.50
2023-02-06T00:31:28.108Z,22.90
2023-02-06T00:33:56.261Z,22.60
2023-02-06T00:36:24.424Z,22.20
2023-02-06T00:38:53.221Z,25.20
2023-02-06T00:41:21.942Z,25.60
2023-02-06T00:43:52.544Z,38.50
2023-02-06T00:46:21.355Z,33.20
2023-02-06T00:48:49.327Z,34.40
2023-02-06T00:51:17.644Z,33.00
2023-02-06T00:53:45.736Z,33.30
2023-02-06T00:56:14.765Z,34.90
2023-02-06T00:58:42.801Z,34.50
2023-02-06T01:01:12.613Z,31.30
2023-02-06T01:03:40.596Z,32.40
2023-02-06T01:06:10.699Z,31.40
2023-02-06T01:08:38.821Z,27.60
2023-02-06T01:11:21.481Z,27.10
2023-02-06T01:13:50.180Z,24.90
2023-02-06T01:16:22.103Z,26.50
2023-02-06T01:18:51.017Z,24.80
2023-02-06T01:21:22.805Z,25.10
2023-02-06T01:23:53.624Z,24.40
2023-02-06T01:26:24.644Z,24.20
2023-02-06T01:28:53.793Z,24.10
2023-02-06T01:31:25.768Z,24.50
2023-02-06T01:33:55.928Z,24.50
2023-02-06T01:36:24.431Z,24.00
2023-02-06T01:38:52.905Z,25.70
2023-02-06T01:41:23.120Z,25.30
2023-02-06T01:44:31.628Z,25.80
2023-02-06T01:46:59.850Z,27.00
2023-02-06T01:49:35.704Z,28.10
2023-02-06T01:52:27.208Z,28.60
2023-02-06T01:55:01.145Z,32.20
2023-02-06T01:57:30.195Z,29.10
2023-02-06T02:00:03.246Z,32.50
2023-02-06T02:02:45.128Z,32.30
2023-02-06T02:05:13.556Z,30.30
2023-02-06T02:07:51.211Z,30.00
2023-02-06T02:10:19.420Z,29.30
2023-02-06T02:12:47.384Z,29.20
2023-02-06T02:15:15.452Z,29.00
2023-02-06T02:17:55.859Z,26.30
2023-02-06T02:20:39.707Z,26.70
2023-02-06T02:23:24.524Z,27.80
2023-02-06T02:26:05.187Z,27.40
2023-02-06T02:29:07.705Z,25.50
2023-02-06T02:31:43.125Z,25.70
2023-02-06T02:34:39.543Z,27.60
2023-02-06T02:37:36.905Z,25.70
2023-02-06T02:40:11.336Z,24.30
2023-02-06T02:42:58.784Z,24.70
2023-02-06T02:45:40.874Z,26.90
2023-02-06T02:48:14.478Z,28.90
2023-02-06T02:50:43.640Z,26.90
2023-02-06T02:53:13.658Z,28.70
2023-02-06T02:55:42.792Z,28.60
2023-02-06T02:58:15.234Z,28.80
2023-02-06T03:00:56.934Z,28.90
2023-02-06T03:03:29.081Z,29.20
2023-02-06T03:06:18.985Z,29.00
2023-02-06T03:09:23.081Z,29.70
2023-02-06T03:12:02.312Z,27.50
2023-02-06T03:14:40.016Z,30.10
2023-02-06T03:17:18.011Z,27.40
2023-02-06T03:19:51.865Z,27.60
2023-02-06T03:22:24.658Z,27.30
2023-02-06T03:24:54.692Z,26.90
2023-02-06T03:27:24.021Z,27.60
2023-02-06T03:29:55.032Z,27.30
2023-02-06T03:32:32.756Z,26.70
2023-02-06T03:35:07.328Z,26.30
2023-02-06T03:37:37.134Z,26.10
2023-02-06T03:40:07.767Z,26.10
2023-02-06T03:42:40.880Z,26.20
2023-02-06T03:45:29.159Z,25.60
2023-02-06T03:48:02.912Z,26.30
2023-02-06T03:50:33.135Z,25.80
2023-02-06T03:53:04.330Z,26.80
2023-02-06T03:55:32.603Z,27.90
2023-02-06T03:58:05.328Z,28.90
2023-02-06T04:00:34.892Z,27.90
2023-02-06T04:03:04.462Z,28.40
2023-02-06T04:05:32.611Z,28.50
2023-02-06T04:08:00.901Z,29.10
2023-02-06T04:10:29.019Z,27.60
2023-02-06T04:12:57.522Z,29.70
2023-02-06T04:15:25.473Z,28.50
2023-02-06T04:18:00.424Z,29.60
2023-02-06T04:20:30.082Z,27.90
2023-02-06T04:22:59.335Z,29.80
2023-02-06T04:25:27.494Z,26.60
2023-02-06T04:27:55.523Z,26.70
2023-02-06T04:30:23.769Z,25.70
2023-02-06T04:32:52.533Z,26.40
2023-02-06T04:35:21.198Z,26.40
2023-02-06T04:37:49.368Z,25.90
2023-02-06T04:40:17.872Z,25.80
2023-02-06T04:42:46.847Z,25.40
2023-02-06T04:45:15.127Z,27.00
2023-02-06T04:47:43.211Z,25.10
2023-02-06T04:50:11.366Z,25.80
2023-02-06T04:52:39.333Z,26.00
2023-02-06T04:55:07.980Z,25.40
2023-02-06T04:57:36.090Z,27.10
2023-02-06T05:00:06.581Z,28.10
2023-02-06T05:02:39.648Z,28.80
2023-02-06T05:05:09.727Z,26.70
2023-02-06T05:07:37.794Z,27.40
2023-02-06T05:10:06.380Z,28.10
2023-02-06T05:12:34.552Z,26.60
2023-02-06T05:15:02.614Z,26.20
2023-02-06T05:17:30.953Z,26.60
2023-02-06T05:19:59.375Z,25.80
2023-02-06T05:22:27.545Z,24.70
2023-02-06T05:24:55.517Z,23.70
2023-02-06T05:27:24.824Z,24.50
2023-02-06T05:29:54.875Z,24.50
2023-02-06T05:32:25.870Z,22.70
2023-02-06T05:34:54.286Z,23.80
2023-02-06T05:37:22.442Z,24.00
2023-02-06T05:39:50.500Z,23.80
2023-02-06T05:42:18.770Z,23.30
2023-02-06T05:44:46.981Z,23.10
2023-02-06T05:47:15.118Z,24.70
2023-02-06T05:49:44.419Z,24.90
2023-02-06T05:52:12.594Z,26.20
2023-02-06T05:54:40.882Z,26.10
2023-02-06T05:57:09.364Z,26.10
2023-02-06T05:59:37.534Z,26.20
2023-02-06T06:02:06.636Z,25.80
2023-02-06T06:04:34.761Z,25.80
2023-02-06T06:07:02.861Z,23.70
2023-02-06T06:09:30.831Z,24.10
2023-02-06T06:11:58.842Z,22.50
2023-02-06T06:14:27.642Z,22.60
2023-02-06T06:16:55.669Z,23.20
2023-02-06T06:19:23.602Z,20.90
2023-02-06T06:21:51.921Z,20.70
2023-02-06T06:24:19.961Z,21.90
2023-02-06T06:26:47.977Z,21.00
2023-02-06T06:29:16.125Z,22.30
2023-02-06T06:31:44.548Z,22.80
2023-02-06T06:34:12.578Z,24.70
2023-02-06T06:36:40.774Z,23.40
2023-02-06T06:39:08.707Z,24.70
2023-02-06T06:41:36.942Z,25.90
2023-02-06T06:44:05.178Z,26.50
2023-02-06T06:46:33.543Z,28.30
2023-02-06T06:49:01.764Z,26.10
2023-02-06T06:51:30.314Z,26.70
2023-02-06T06:53:58.465Z,29.90
2023-02-06T06:56:27.250Z,28.00
2023-02-06T06:58:55.846Z,27.80
2023-02-06T07:01:23.835Z,27.10
2023-02-06T07:03:52.594Z,27.10
2023-02-06T07:06:20.869Z,27.10
2023-02-06T07:08:48.834Z,26.20
2023-02-06T07:11:18.316Z,24.60
2023-02-06T07:13:46.333Z,27.40
2023-02-06T07:16:14.431Z,29.80
2023-02-06T07:18:43.282Z,29.20
2023-02-06T07:21:11.854Z,30.70
2023-02-06T07:23:40.333Z,29.00
2023-02-06T07:26:08.616Z,30.70
2023-02-06T07:28:37.396Z,30.40
2023-02-06T07:31:07.072Z,29.00
2023-02-06T07:33:35.704Z,28.80
2023-02-06T07:36:04.311Z,28.00
2023-02-06T07:38:32.573Z,27.10
2023-02-06T07:41:02.737Z,24.20
2023-02-06T07:43:31.656Z,24.50
2023-02-06T07:46:01.531Z,26.30
2023-02-06T07:48:30.155Z,21.50
2023-02-06T07:51:05.463Z,22.10
2023-02-06T07:53:34.388Z,22.90
2023-02-06T07:56:03.076Z,21.30
2023-02-06T07:58:31.043Z,22.70
2023-02-06T08:01:04.930Z,21.90
2023-02-06T08:03:34.250Z,26.60
2023-02-06T08:06:08.422Z,28.70
2023-02-06T08:08:36.637Z,26.00
2023-02-06T08:11:06.905Z,26.00
2023-02-06T08:13:35.491Z,24.20
2023-02-06T08:16:08.917Z,26.20
2023-02-06T08:18:38.032Z,25.00
2023-02-06T08:21:09.792Z,27.80
2023-02-06T08:23:38.787Z,25.60
2023-02-06T08:26:18.227Z,26.00
2023-02-06T08:28:49.619Z,25.00
2023-02-06T08:31:26.534Z,28.70
2023-02-06T08:33:55.452Z,27.30
2023-02-06T08:36:24.849Z,31.70
2023-02-06T08:38:53.374Z,27.20
2023-02-06T08:41:30.889Z,26.50
2023-02-06T08:44:00.794Z,25.90
2023-02-06T08:46:31.811Z,25.50
2023-02-06T08:49:04.011Z,34.30
2023-02-06T08:51:33.648Z,27.00
2023-02-06T08:54:04.612Z,27.30
2023-02-06T08:56:34.437Z,25.20
2023-02-06T08:59:04.134Z,24.50
2023-02-06T09:01:34.278Z,24.50
2023-02-06T09:04:09.400Z,25.80
2023-02-06T09:06:43.206Z,23.20
2023-02-06T09:09:12.790Z,22.60
2023-02-06T09:11:41.623Z,25.40
2023-02-06T09:14:14.928Z,25.90
2023-02-06T09:16:43.647Z,22.40
2023-02-06T09:19:12.224Z,22.70
2023-02-06T09:21:40.601Z,23.50
2023-02-06T09:24:09.671Z,24.70
2023-02-06T09:26:53.417Z,24.30
2023-02-06T09:29:25.931Z,24.00
2023-02-06T09:31:53.980Z,22.40
2023-02-06T09:34:21.996Z,22.70
2023-02-06T09:36:50.320Z,20.40
2023-02-06T09:39:18.598Z,20.30
2023-02-06T09:41:51.416Z,18.70
2023-02-06T09:44:22.117Z,20.90
2023-02-06T09:47:02.787Z,25.50
2023-02-06T09:50:02.941Z,21.90
2023-02-06T09:52:55.038Z,22.70
2023-02-06T09:55:38.091Z,25.50
2023-02-06T09:58:31.040Z,25.30
2023-02-06T10:01:08.430Z,24.10
2023-02-06T10:03:50.158Z,22.40
2023-02-06T10:06:24.306Z,25.20
2023-02-06T10:09:37.434Z,24.10
2023-02-06T10:12:14.828Z,22.30
2023-02-06T10:14:50.914Z,31.60
2023-02-06T10:17:28.113Z,28.00
2023-02-06T10:19:59.532Z,23.20
2023-02-06T10:22:47.080Z,23.30
2023-02-06T10:25:29.569Z,24.70
2023-02-06T10:28:02.468Z,21.40
2023-02-06T10:31:09.602Z,19.80
2023-02-06T10:34:21.560Z,17.60
2023-02-06T10:37:00.252Z,15.90
2023-02-06T10:40:05.491Z,17.50
2023-02-06T10:43:04.960Z,19.20
2023-02-06T10:45:51.972Z,20.70
2023-02-06T10:48:39.278Z,20.10
2023-02-06T10:51:19.017Z,21.20
2023-02-06T10:53:52.257Z,22.90
2023-02-06T10:56:28.955Z,22.90
2023-02-06T10:59:04.903Z,20.00
2023-02-06T11:01:38.569Z,23.30
2023-02-06T11:04:21.012Z,24.60
2023-02-06T11:06:49.698Z,24.00
2023-02-06T11:09:17.667Z,24.50
2023-02-06T11:11:51.477Z,22.90
2023-02-06T11:14:25.309Z,24.20
2023-02-06T11:16:54.069Z,22.70
2023-02-06T11:19:36.163Z,23.70
2023-02-06T11:22:07.510Z,22.60
2023-02-06T11:24:37.449Z,23.60
2023-02-06T11:27:22.978Z,19.80
2023-02-06T11:29:52.263Z,19.20
2023-02-06T11:32:38.015Z,19.30
2023-02-06T11:35:28.287Z,20.30
2023-02-06T11:38:13.558Z,20.80
2023-02-06T11:40:42.260Z,23.10
2023-02-06T11:43:16.378Z,22.50
2023-02-06T11:45:47.368Z,23.20
2023-02-06T11:48:38.420Z,24.00
2023-02-06T11:51:08.260Z,24.40
2023-02-06T11:53:38.251Z,23.90
2023-02-06T11:56:16.143Z,24.20
2023-02-06T11:58:45.659Z,25.50
2023-02-06T12:01:21.070Z,24.90
2023-02-06T12:03:56.510Z,23.40
2023-02-06T12:06:32.598Z,25.50
2023-02-06T12:09:04.075Z,27.00
2023-02-06T12:11:58.553Z,22.70
2023-02-06T12:14:51.590Z,19.40
2023-02-06T12:17:28.330Z,22.60
2023-02-06T12:20:03.527Z,21.30
2023-02-06T12:22:38.878Z,20.80
2023-02-06T12:25:24.745Z,22.00
2023-02-06T12:27:58.244Z,21.50
2023-02-06T12:30:40.742Z,20.90
2023-02-06T12:33:23.548Z,19.30
2023-02-06T12:36:03.522Z,23.20
2023-02-06T12:38:40.696Z,18.30
2023-02-06T12:41:23.808Z,15.90
2023-02-06T12:44:19.653Z,21.50
2023-02-06T12:46:57.370Z,15.60
2023-02-06T12:49:42.221Z,15.20
2023-02-06T12:52:17.540Z,15.20
2023-02-06T12:54:59.623Z,14.40
2023-02-06T12:57:31.654Z,16.20
2023-02-06T13:00:18.955Z,17.20
2023-02-06T13:03:24.768Z,15.50
2023-02-06T13:06:04.017Z,11.30
2023-02-06T13:08:47.331Z,11.70
2023-02-06T13:11:21.454Z,12.90
2023-02-06T13:13:50.253Z,13.10
2023-02-06T13:16:19.237Z,13.80
2023-02-06T13:18:52.691Z,17.30
2023-02-06T13:21:32.371Z,16.00
2023-02-06T13:24:03.535Z,18.40
2023-02-06T13:26:53.102Z,19.20
2023-02-06T13:29:26.861Z,18.40
2023-02-06T13:32:12.610Z,20.30
2023-02-06T13:34:43.406Z,23.30
2023-02-06T13:37:26.641Z,23.80
2023-02-06T13:40:22.414Z,23.00
2023-02-06T13:43:05.990Z,25.80
2023-02-06T13:45:37.008Z,29.30
2023-02-06T13:48:14.639Z,22.30
2023-02-06T13:50:54.583Z,20.00
2023-02-06T13:54:03.311Z,22.00
2023-02-06T13:56:46.988Z,20.20
2023-02-06T13:59:23.158Z,21.30
2023-02-06T14:01:56.571Z,21.40
2023-02-06T14:04:28.730Z,31.00
2023-02-06T14:07:35.339Z,25.00
2023-02-06T14:10:38.853Z,24.40
2023-02-06T14:13:24.359Z,37.50
2023-02-06T14:16:26.947Z,22.10
2023-02-06T14:19:04.641Z,17.50
2023-02-06T14:21:58.880Z,19.30
2023-02-06T14:24:54.533Z,17.10
2023-02-06T14:27:32.031Z,18.40
2023-02-06T14:30:38.272Z,16.30
2023-02-06T14:33:34.066Z,17.50
2023-02-06T14:36:12.820Z,18.70
2023-02-06T14:38:59.292Z,20.80
2023-02-06T14:41:30.326Z,18.20
2023-02-06T14:43:59.880Z,20.10
2023-02-06T14:46:29.416Z,21.00
2023-02-06T14:48:59.688Z,23.00
2023-02-06T14:51:38.241Z,22.90
2023-02-06T14:54:27.085Z,22.00
2023-02-06T14:57:00.489Z,23.60
2023-02-06T14:59:29.468Z,24.60
2023-02-06T15:02:12.282Z,27.20
2023-02-06T15:04:47.772Z,25.40
2023-02-06T15:07:35.422Z,23.90
2023-02-06T15:10:18.390Z,40.10
2023-02-06T15:12:53.826Z,30.50
2023-02-06T15:15:24.935Z,26.40
2023-02-06T15:18:14.682Z,26.00
2023-02-06T15:20:45.296Z,27.40
2023-02-06T15:23:57.243Z,27.50
2023-02-06T15:26:25.546Z,30.20
2023-02-06T15:28:58.817Z,28.40
2023-02-06T15:31:28.754Z,33.10
2023-02-06T15:34:01.511Z,31.80
2023-02-06T15:36:38.633Z,30.80
2023-02-06T15:39:09.682Z,41.90
2023-02-06T15:41:41.083Z,37.00
2023-02-06T15:44:17.803Z,34.80
2023-02-06T15:49:37.548Z,41.50
2023-02-06T15:52:06.029Z,44.70
2023-02-06T15:54:34.534Z,46.20
2023-02-06T15:57:04.838Z,44.30
2023-02-06T15:59:37.021Z,37.30
2023-02-06T16:02:05.980Z,38.30
2023-02-06T16:04:39.848Z,44.00
2023-02-06T16:07:19.767Z,42.80
2023-02-06T16:10:12.447Z,37.70
2023-02-06T16:12:43.522Z,35.50
2023-02-06T16:15:27.249Z,37.10
2023-02-06T16:17:56.767Z,43.50
2023-02-06T16:20:37.274Z,40.40
2023-02-06T16:23:27.159Z,36.00
2023-02-06T16:26:17.423Z,32.70
2023-02-06T16:29:03.022Z,29.90
2023-02-06T16:31:35.057Z,24.80
2023-02-06T16:34:29.661Z,33.30
2023-02-06T16:36:57.828Z,33.20
2023-02-06T16:39:25.823Z,35.70
2023-02-06T16:41:54.272Z,33.90
2023-02-06T16:44:22.347Z,36.50
2023-02-06T16:46:50.345Z,36.70
2023-02-06T16:49:21.777Z,36.20
2023-02-06T16:51:53.664Z,41.50
2023-02-06T16:54:32.077Z,42.70
2023-02-06T16:57:11.425Z,41.60
2023-02-06T16:59:39.482Z,41.80
2023-02-06T17:02:14.668Z,42.90
2023-02-06T17:04:42.792Z,40.80
2023-02-06T17:07:23.137Z,41.70
2023-02-06T17:09:54.077Z,41.80
2023-02-06T17:12:22.984Z,45.00
2023-02-06T17:14:51.111Z,52.80
2023-02-06T17:17:20.958Z,67.40
2023-02-06T17:19:50.805Z,77.80
2023-02-06T17:22:19.117Z,70.60
2023-02-06T17:24:47.491Z,69.50
2023-02-06T17:27:20.070Z,68.70
2023-02-06T17:29:49.606Z,83.60
2023-02-06T17:32:22.307Z,82.30
2023-02-06T17:34:54.349Z,74.80
2023-02-06T17:37:22.595Z,124.20
2023-02-06T17:39:52.310Z,126.30
2023-02-06T17:42:22.191Z,132.20
2023-02-06T17:44:50.722Z,97.40
2023-02-06T17:47:18.977Z,102.70
2023-02-06T17:49:47.251Z,108.40
2023-02-06T17:52:15.732Z,92.20
2023-02-06T17:54:44.801Z,86.10
2023-02-06T17:57:13.720Z,88.90
2023-02-06T17:59:42.106Z,99.20
2023-02-06T18:02:14.855Z,81.30
2023-02-06T18:04:43.156Z,62.50
2023-02-06T18:07:11.226Z,58.40
2023-02-06T18:09:41.768Z,73.30
2023-02-06T18:12:10.131Z,68.00
2023-02-06T18:14:39.859Z,66.30
2023-02-06T18:17:08.750Z,47.30
2023-02-06T18:19:42.302Z,43.60
2023-02-06T18:22:13.421Z,44.70
2023-02-06T18:24:41.759Z,42.50
2023-02-06T18:27:10.776Z,44.00
2023-02-06T18:29:49.420Z,43.60
2023-02-06T18:32:19.117Z,40.60
2023-02-06T18:34:47.698Z,38.50
2023-02-06T18:37:16.259Z,40.70
2023-02-06T18:39:44.530Z,38.40
2023-02-06T18:42:31.772Z,39.00
2023-02-06T18:44:59.904Z,38.70
2023-02-06T18:47:28.073Z,41.80
2023-02-06T18:49:56.025Z,40.80
2023-02-06T18:52:24.327Z,45.90
2023-02-06T18:54:52.389Z,42.20
2023-02-06T18:57:20.463Z,46.30
2023-02-06T18:59:49.042Z,44.20
2023-02-06T19:02:17.420Z,44.60
2023-02-06T19:04:45.738Z,43.20
2023-02-06T19:07:13.981Z,46.00
2023-02-06T19:09:42.357Z,45.70
2023-02-06T19:12:10.544Z,46.90
2023-02-06T19:14:40.206Z,45.60
2023-02-06T19:17:08.424Z,46.40
2023-02-06T19:19:36.589Z,50.20
2023-02-06T19:22:04.658Z,116.40
2023-02-06T19:24:32.757Z,87.30
2023-02-06T19:27:02.201Z,67.50
2023-02-06T19:29:36.145Z,74.70
2023-02-06T19:32:06.721Z,53.70
2023-02-06T19:34:37.201Z,46.80
2023-02-06T19:37:07.734Z,44.70
2023-02-06T19:39:37.247Z,41.40
2023-02-06T19:42:07.113Z,44.10
2023-02-06T19:44:35.855Z,43.90
2023-02-06T19:47:04.352Z,45.60
2023-02-06T19:49:32.765Z,44.20
2023-02-06T19:52:01.618Z,47.80
2023-02-06T19:54:29.569Z,48.70
2023-02-06T19:56:57.576Z,48.50
2023-02-06T19:59:27.830Z,50.50
2023-02-06T20:02:02.974Z,47.00
2023-02-06T20:04:34.692Z,50.90
2023-02-06T20:07:03.139Z,51.40
2023-02-06T20:09:31.819Z,52.40
2023-02-06T20:12:00.485Z,51.20
2023-02-06T20:14:29.114Z,52.10
2023-02-06T20:16:57.219Z,51.50
2023-02-06T20:19:27.948Z,52.60
2023-02-06T20:21:59.037Z,50.00
2023-02-06T20:24:30.202Z,40.80
2023-02-06T20:27:01.492Z,42.60
2023-02-06T20:29:33.040Z,43.00
2023-02-06T20:32:01.565Z,46.70
2023-02-06T20:34:29.865Z,48.80
2023-02-06T20:36:58.703Z,50.30
2023-02-06T20:39:27.820Z,49.40
2023-02-06T20:41:56.458Z,49.10
2023-02-06T20:44:24.716Z,49.50
2023-02-06T20:46:53.017Z,46.70
2023-02-06T20:49:24.400Z,49.70
2023-02-06T20:51:52.900Z,53.70
2023-02-06T20:54:21.959Z,49.70
2023-02-06T20:56:50.140Z,50.10
2023-02-06T20:59:20.046Z,49.70
2023-02-06T21:01:48.625Z,50.40
2023-02-06T21:04:18.181Z,51.30
2023-02-06T21:06:48.767Z,50.80
2023-02-06T21:09:18.061Z,52.50
2023-02-06T21:11:48.442Z,51.50
2023-02-06T21:14:17.695Z,50.90
2023-02-06T21:16:46.799Z,52.60
2023-02-06T21:19:17.332Z,52.60
2023-02-06T21:21:46.297Z,47.60
2023-02-06T21:24:16.935Z,46.70
2023-02-06T21:26:45.224Z,41.70
2023-02-06T21:29:15.015Z,42.60
2023-02-06T21:31:43.454Z,42.60
2023-02-06T21:34:14.967Z,41.30
2023-02-06T21:36:44.263Z,40.10
2023-02-06T21:39:22.269Z,40.90
2023-02-06T21:41:56.778Z,37.70
2023-02-06T21:44:25.411Z,38.00
2023-02-06T21:46:54.153Z,41.30
2023-02-06T21:49:23.460Z,42.40
2023-02-06T21:51:53.367Z,47.60
2023-02-06T21:54:22.619Z,45.50
2023-02-06T21:56:51.725Z,54.20
2023-02-06T21:59:19.736Z,56.60
2023-02-06T22:01:47.750Z,49.30
2023-02-06T22:04:15.871Z,47.60
2023-02-06T22:06:44.158Z,49.00
2023-02-06T22:09:16.540Z,48.10
2023-02-06T22:11:44.694Z,45.00
2023-02-06T22:14:17.818Z,45.60
2023-02-06T22:16:46.996Z,47.50
2023-02-06T22:19:16.929Z,48.70
2023-02-06T22:21:46.021Z,46.40
2023-02-06T22:24:14.060Z,45.10
2023-02-06T22:26:43.362Z,42.60
2023-02-06T22:29:14.860Z,40.70
2023-02-06T22:31:44.878Z,41.30
2023-02-06T22:34:18.484Z,37.10
2023-02-06T22:36:47.316Z,38.50
2023-02-06T22:39:15.693Z,37.60
2023-02-06T22:41:45.683Z,38.90
2023-02-06T22:44:16.822Z,43.90
2023-02-06T22:46:48.505Z,49.00
2023-02-06T22:49:17.456Z,47.20
2023-02-06T22:51:46.087Z,45.90
2023-02-06T22:54:15.087Z,49.70
2023-02-06T22:56:44.102Z,46.90
2023-02-06T22:59:21.739Z,44.30
2023-02-06T23:02:30.795Z,43.40
2023-02-06T23:04:59.272Z,43.00
2023-02-06T23:07:27.655Z,42.50
2023-02-06T23:09:55.843Z,44.70
2023-02-06T23:12:23.796Z,46.00
2023-02-06T23:14:51.867Z,43.40
2023-02-06T23:17:19.943Z,42.00
2023-02-06T23:19:48.114Z,41.60
2023-02-06T23:22:16.184Z,42.20
2023-02-06T23:24:44.458Z,44.00
2023-02-06T23:27:12.633Z,42.10
2023-02-06T23:29:40.705Z,40.00
2023-02-06T23:32:08.779Z,40.10
2023-02-06T23:34:38.534Z,36.20
2023-02-06T23:37:07.070Z,35.50
2023-02-06T23:39:35.348Z,32.80
2023-02-06T23:42:03.437Z,33.30
2023-02-06T23:44:31.685Z,32.40
2023-02-06T23:46:59.858Z,31.50
2023-02-06T23:49:27.838Z,34.40
2023-02-06T23:51:56.109Z,34.00
2023-02-06T23:54:24.185Z,35.90
2023-02-06T23:56:52.246Z,32.90
2023-02-06T23:59:20.321Z,33.40
